Time;durP1;ratioP1;P1;durP2;ratioP2;P2;SDS_P1;SDS_P2;PMS_P1;PMS_P2;Temp;Humidity;BMP_temperature;BMP_pressure;BME280_temperature;BME280_humidity;BME280_pressure;Samples;Min_cycle;Max_cycle;Signal;HPM_P1;HPM_P2
2022/09/13 00:00:18;;;;;;;28.15;12.23;;;;;;;;;;6283149;28;20040;-52
2022/09/13 00:03:38;;;;;;;24.02;11.88;;;;;;;;;;6284209;28;20437;-51
2022/09/13 00:06:39;;;;;;;20.88;11.43;;;;;;;;;;6285564;28;20090;-57
2022/09/13 00:09:39;;;;;;;24.75;12.70;;;;;;;;;;6283194;28;20497;-58
2022/09/13 00:12:40;;;;;;;24.95;11.70;;;;;;;;;;6282021;28;20147;-53
2022/09/13 00:15:49;;;;;;;23.42;11.90;;;;;;;;;;6285438;28;20056;-55
2022/09/13 00:18:51;;;;;;;21.95;11.68;;;;;;;;;;6284000;28;20083;-57
2022/09/13 00:21:51;;;;;;;18.85;10.82;;;;;;;;;;6283769;28;20032;-51
2022/09/13 00:24:53;;;;;;;31.67;13.13;;;;;;;;;;6284205;28;20138;-60
2022/09/13 00:27:53;;;;;;;25.67;12.20;;;;;;;;;;6283616;28;20040;-50
2022/09/13 00:30:57;;;;;;;24.50;12.65;;;;;;;;;;6282917;28;20093;-54
2022/09/13 00:33:59;;;;;;;32.55;13.57;;;;;;;;;;6284281;28;20392;-54
2022/09/13 00:36:59;;;;;;;23.90;11.82;;;;;;;;;;6281961;28;20068;-53
2022/09/13 00:40:00;;;;;;;23.60;11.02;;;;;;;;;;6283910;28;20473;-52
2022/09/13 00:43:01;;;;;;;22.40;12.50;;;;;;;;;;6283736;28;20072;-53
2022/09/13 00:46:03;;;;;;;22.25;11.18;;;;;;;;;;6283508;28;20359;-56
2022/09/13 00:49:21;;;;;;;23.52;12.57;;;;;;;;;;6282465;28;20071;-54
2022/09/13 00:52:24;;;;;;;22.38;12.05;;;;;;;;;;6283276;28;20148;-56
2022/09/13 00:55:50;;;;;;;21.42;10.77;;;;;;;;;;6281678;28;20569;-55
2022/09/13 00:58:57;;;;;;;20.48;11.52;;;;;;;;;;6282639;28;20040;-53
2022/09/13 01:02:00;;;;;;;38.80;11.95;;;;;;;;;;6286063;28;20098;-56
2022/09/13 01:05:01;;;;;;;19.30;11.30;;;;;;;;;;6283636;28;20036;-53
2022/09/13 01:08:05;;;;;;;23.87;10.10;;;;;;;;;;6286580;28;20056;-53
2022/09/13 01:11:11;;;;;;;25.83;10.95;;;;;;;;;;6284209;28;20304;-56
2022/09/13 01:14:12;;;;;;;22.42;10.55;;;;;;;;;;6282730;28;20071;-53
2022/09/13 01:17:13;;;;;;;19.07;10.90;;;;;;;;;;6282505;28;20044;-50
2022/09/13 01:20:14;;;;;;;19.88;9.82;;;;;;;;;;6282956;28;20056;-54
2022/09/13 01:23:40;;;;;;;18.17;9.82;;;;;;;;;;6283285;28;20120;-58
2022/09/13 01:26:53;;;;;;;21.33;10.82;;;;;;;;;;6281712;28;20402;-58
2022/09/13 01:30:19;;;;;;;20.85;10.18;;;;;;;;;;6282285;28;20094;-52
2022/09/13 01:33:47;;;;;;;20.00;11.02;;;;;;;;;;6283890;28;20129;-54
2022/09/13 01:37:00;;;;;;;20.08;10.93;;;;;;;;;;6287837;28;20056;-57
2022/09/13 01:40:22;;;;;;;24.15;11.93;;;;;;;;;;6283919;28;20410;-56
2022/09/13 01:43:34;;;;;;;26.40;11.93;;;;;;;;;;6286593;28;20048;-54
2022/09/13 01:46:54;;;;;;;22.30;11.85;;;;;;;;;;6286331;28;20456;-57
2022/09/13 01:50:11;;;;;;;26.23;12.27;;;;;;;;;;6286597;28;20056;-54
2022/09/13 01:53:29;;;;;;;22.45;11.07;;;;;;;;;;6288198;28;20072;-55
2022/09/13 01:56:39;;;;;;;26.42;12.00;;;;;;;;;;6288622;28;20033;-55
2022/09/13 01:59:52;;;;;;;24.52;11.40;;;;;;;;;;6294048;28;20147;-52
2022/09/13 02:03:11;;;;;;;22.38;11.18;;;;;;;;;;6294043;28;20049;-54
2022/09/13 02:06:20;;;;;;;24.70;11.68;;;;;;;;;;6292670;28;20048;-53
2022/09/13 02:09:24;;;;;;;22.13;10.60;;;;;;;;;;6292384;28;20044;-58
2022/09/13 02:12:29;;;;;;;24.15;11.95;;;;;;;;;;6288932;28;20143;-54
2022/09/13 02:15:40;;;;;;;22.70;11.38;;;;;;;;;;6288917;28;20044;-57
2022/09/13 02:18:46;;;;;;;37.60;11.67;;;;;;;;;;6290516;28;20486;-52
2022/09/13 02:21:51;;;;;;;24.35;10.93;;;;;;;;;;6293582;28;20406;-51
2022/09/13 02:24:57;;;;;;;23.13;11.43;;;;;;;;;;6293481;28;20128;-60
2022/09/13 02:28:04;;;;;;;22.45;11.10;;;;;;;;;;6286978;28;20048;-58
2022/09/13 02:31:08;;;;;;;28.95;14.32;;;;;;;;;;6286226;28;20458;-52
2022/09/13 02:34:15;;;;;;;35.28;15.90;;;;;;;;;;6287661;28;20099;-50
2022/09/13 02:37:16;;;;;;;40.40;18.17;;;;;;;;;;6285650;28;20103;-54
2022/09/13 02:40:22;;;;;;;42.30;18.50;;;;;;;;;;6282279;28;20054;-50
2022/09/13 02:43:30;;;;;;;42.25;18.75;;;;;;;;;;6287068;28;20598;-57
2022/09/13 02:46:54;;;;;;;38.75;18.40;;;;;;;;;;6286537;28;20057;-50
2022/09/13 02:50:10;;;;;;;43.00;18.02;;;;;;;;;;6285954;28;20064;-51
2022/09/13 02:53:25;;;;;;;32.80;14.93;;;;;;;;;;6283252;28;20044;-53
2022/09/13 02:56:48;;;;;;;44.45;17.25;;;;;;;;;;6286473;28;20040;-50
2022/09/13 02:59:48;;;;;;;40.00;18.05;;;;;;;;;;6285755;28;20581;-54
2022/09/13 03:02:51;;;;;;;60.65;21.98;;;;;;;;;;6285138;28;20044;-53
2022/09/13 03:05:52;;;;;;;64.35;20.20;;;;;;;;;;6284930;28;20123;-50
2022/09/13 03:09:01;;;;;;;61.63;19.17;;;;;;;;;;6285288;28;20117;-53
2022/09/13 03:12:14;;;;;;;63.08;19.85;;;;;;;;;;6285677;28;20068;-53
2022/09/13 03:15:35;;;;;;;56.13;19.08;;;;;;;;;;6283044;28;20147;-52
2022/09/13 03:19:09;;;;;;;100.85;26.02;;;;;;;;;;6286455;28;20110;-51
2022/09/13 03:22:31;;;;;;;170.90;28.80;;;;;;;;;;6288581;28;20151;-54
2022/09/13 03:25:51;;;;;;;74.60;24.95;;;;;;;;;;6286363;28;20052;-51
2022/09/13 03:29:10;;;;;;;102.35;21.40;;;;;;;;;;6284412;28;20060;-51
2022/09/13 03:32:35;;;;;;;100.20;23.17;;;;;;;;;;6284737;28;20048;-52
2022/09/13 03:36:05;;;;;;;84.13;23.92;;;;;;;;;;6284375;28;20098;-50
2022/09/13 03:39:39;;;;;;;87.40;24.33;;;;;;;;;;6285036;28;20080;-50
2022/09/13 03:42:43;;;;;;;86.20;23.50;;;;;;;;;;6273815;28;20067;-51
2022/09/13 03:45:48;;;;;;;85.57;24.27;;;;;;;;;;6284127;28;20084;-54
2022/09/13 03:48:50;;;;;;;73.40;23.08;;;;;;;;;;6284972;28;20885;-49
2022/09/13 03:51:51;;;;;;;88.65;24.42;;;;;;;;;;6285141;28;20470;-50
2022/09/13 03:54:53;;;;;;;67.65;24.17;;;;;;;;;;6284332;28;20040;-55
2022/09/13 03:57:53;;;;;;;69.55;24.92;;;;;;;;;;6282764;28;20059;-54
2022/09/13 04:00:54;;;;;;;62.70;25.08;;;;;;;;;;6284806;28;20036;-58
2022/09/13 04:03:55;;;;;;;63.85;25.35;;;;;;;;;;6285902;28;20102;-52
2022/09/13 04:06:55;;;;;;;59.95;25.15;;;;;;;;;;6279209;28;20122;-53
2022/09/13 04:09:56;;;;;;;57.45;24.05;;;;;;;;;;6285930;28;20040;-53
2022/09/13 04:12:59;;;;;;;60.30;24.42;;;;;;;;;;6283516;28;20059;-50
2022/09/13 04:16:01;;;;;;;52.83;23.83;;;;;;;;;;6280957;28;20106;-51
2022/09/13 04:19:02;;;;;;;57.65;24.13;;;;;;;;;;6282538;28;20478;-51
2022/09/13 04:22:03;;;;;;;49.22;22.48;;;;;;;;;;6283263;28;20036;-51
2022/09/13 04:25:04;;;;;;;56.15;23.35;;;;;;;;;;6281094;28;20410;-50
2022/09/13 04:28:05;;;;;;;50.40;22.45;;;;;;;;;;6281015;28;20132;-57
2022/09/13 04:31:06;;;;;;;55.88;23.25;;;;;;;;;;6280551;28;20072;-52
2022/09/13 04:34:07;;;;;;;54.80;22.67;;;;;;;;;;6282675;28;20505;-51
2022/09/13 04:37:08;;;;;;;62.03;23.20;;;;;;;;;;6283888;28;20517;-58
2022/09/13 04:40:09;;;;;;;56.65;23.90;;;;;;;;;;6280656;28;20032;-55
2022/09/13 04:43:09;;;;;;;66.35;23.48;;;;;;;;;;6282817;28;20055;-54
2022/09/13 04:46:10;;;;;;;63.80;22.73;;;;;;;;;;6282811;28;20426;-54
2022/09/13 04:49:11;;;;;;;69.97;23.67;;;;;;;;;;6283824;28;20040;-53
2022/09/13 04:52:11;;;;;;;59.92;24.73;;;;;;;;;;6281316;28;20041;-51
2022/09/13 04:55:13;;;;;;;83.13;22.67;;;;;;;;;;6282723;28;20090;-52
2022/09/13 04:58:13;;;;;;;63.50;23.63;;;;;;;;;;6282955;28;20051;-59
2022/09/13 05:01:14;;;;;;;67.43;23.65;;;;;;;;;;6281273;28;20845;-55
2022/09/13 05:04:15;;;;;;;52.25;21.25;;;;;;;;;;6283598;28;20040;-57
2022/09/13 05:07:16;;;;;;;52.33;22.53;;;;;;;;;;6283879;28;20060;-57
2022/09/13 05:10:17;;;;;;;46.92;21.80;;;;;;;;;;6287054;28;20041;-61
2022/09/13 05:13:18;;;;;;;53.33;22.38;;;;;;;;;;6283755;28;20038;-53
2022/09/13 05:16:18;;;;;;;51.55;22.15;;;;;;;;;;6287657;28;20045;-53
2022/09/13 05:19:19;;;;;;;51.35;23.60;;;;;;;;;;6293113;28;20403;-51
2022/09/13 05:22:19;;;;;;;55.92;25.73;;;;;;;;;;6293434;28;20041;-60
2022/09/13 05:25:20;;;;;;;62.05;28.17;;;;;;;;;;6293226;28;20041;-50
2022/09/13 05:28:22;;;;;;;63.90;28.75;;;;;;;;;;6294180;28;20058;-58
2022/09/13 05:31:29;;;;;;;67.05;27.95;;;;;;;;;;6290759;28;20135;-55
2022/09/13 05:34:29;;;;;;;57.53;26.08;;;;;;;;;;6287779;28;20063;-58
2022/09/13 05:37:30;;;;;;;61.63;28.13;;;;;;;;;;6287044;28;20498;-56
2022/09/13 05:40:30;;;;;;;71.25;29.90;;;;;;;;;;6292194;28;20044;-51
2022/09/13 05:43:34;;;;;;;73.03;30.10;;;;;;;;;;6293397;28;20052;-56
2022/09/13 05:46:34;;;;;;;68.68;30.58;;;;;;;;;;6289730;28;20052;-54
2022/09/13 05:49:35;;;;;;;72.85;31.20;;;;;;;;;;6288378;28;20709;-55
2022/09/13 05:52:35;;;;;;;76.85;32.42;;;;;;;;;;6286129;28;20052;-59
2022/09/13 05:55:36;;;;;;;80.18;34.55;;;;;;;;;;6284221;28;20036;-58
2022/09/13 05:58:45;;;;;;;86.32;37.00;;;;;;;;;;6285661;28;20064;-51
2022/09/13 06:01:47;;;;;;;80.22;32.85;;;;;;;;;;6283716;28;20172;-57
2022/09/13 06:04:49;;;;;;;81.03;31.38;;;;;;;;;;6285861;28;20046;-50
2022/09/13 06:07:50;;;;;;;74.10;31.08;;;;;;;;;;6283931;28;20147;-51
2022/09/13 06:10:58;;;;;;;71.15;28.67;;;;;;;;;;6290237;28;20043;-55
2022/09/13 06:13:58;;;;;;;70.53;28.92;;;;;;;;;;6289981;28;20043;-52
2022/09/13 06:16:59;;;;;;;77.40;31.73;;;;;;;;;;6288906;28;20776;-55
2022/09/13 06:19:59;;;;;;;66.97;28.40;;;;;;;;;;6291635;28;20407;-54
2022/09/13 06:23:00;;;;;;;72.97;29.58;;;;;;;;;;6292860;28;20053;-54
2022/09/13 06:26:08;;;;;;;68.78;26.95;;;;;;;;;;6291762;28;20123;-53
2022/09/13 06:29:10;;;;;;;60.00;26.38;;;;;;;;;;6291362;28;20495;-56
2022/09/13 06:32:10;;;;;;;65.22;27.88;;;;;;;;;;6293216;28;20075;-58
2022/09/13 06:35:11;;;;;;;63.75;26.17;;;;;;;;;;6292996;28;20056;-55
2022/09/13 06:38:11;;;;;;;60.72;25.95;;;;;;;;;;6286185;28;20139;-58
2022/09/13 06:41:18;;;;;;;62.33;25.98;;;;;;;;;;6286590;28;20049;-57
2022/09/13 06:44:18;;;;;;;59.22;26.17;;;;;;;;;;6286347;28;20041;-58
2022/09/13 06:47:19;;;;;;;56.00;23.45;;;;;;;;;;6283771;28;20127;-59
2022/09/13 06:50:20;;;;;;;53.38;24.00;;;;;;;;;;6284621;28;20048;-53
2022/09/13 06:53:20;;;;;;;66.63;23.95;;;;;;;;;;6283461;28;20044;-51
2022/09/13 06:56:26;;;;;;;50.22;22.50;;;;;;;;;;6284359;28;20625;-54
2022/09/13 06:59:27;;;;;;;46.95;20.45;;;;;;;;;;6281990;28;20048;-59
2022/09/13 07:02:28;;;;;;;48.75;21.48;;;;;;;;;;6288911;28;20102;-51
2022/09/13 07:05:28;;;;;;;45.45;21.08;;;;;;;;;;6291339;28;20115;-50
2022/09/13 07:08:30;;;;;;;43.55;19.77;;;;;;;;;;6290200;28;20070;-52
2022/09/13 07:11:36;;;;;;;45.75;19.83;;;;;;;;;;6291880;28;20497;-57
2022/09/13 07:14:37;;;;;;;43.50;19.35;;;;;;;;;;6291297;28;20044;-52
2022/09/13 07:17:37;;;;;;;47.03;19.92;;;;;;;;;;6289602;28;20421;-51
2022/09/13 07:20:38;;;;;;;52.60;20.08;;;;;;;;;;6287748;28;20507;-51
2022/09/13 07:23:39;;;;;;;41.10;19.45;;;;;;;;;;6285000;28;20040;-60
2022/09/13 07:26:40;;;;;;;40.90;19.00;;;;;;;;;;6283536;28;20052;-53
2022/09/13 07:29:40;;;;;;;40.00;19.83;;;;;;;;;;6286027;28;20062;-57
2022/09/13 07:32:41;;;;;;;40.03;19.45;;;;;;;;;;6289267;28;20121;-56
2022/09/13 07:35:42;;;;;;;38.47;19.08;;;;;;;;;;6290665;28;20143;-55
2022/09/13 07:38:46;;;;;;;41.50;18.60;;;;;;;;;;6289666;28;20044;-53
2022/09/13 07:41:47;;;;;;;39.25;18.05;;;;;;;;;;6291047;28;20037;-51
2022/09/13 07:44:48;;;;;;;40.70;20.10;;;;;;;;;;6290828;28;20044;-56
2022/09/13 07:47:52;;;;;;;39.50;17.25;;;;;;;;;;6289060;28;20269;-51
2022/09/13 07:51:10;;;;;;;41.08;18.70;;;;;;;;;;6290543;28;20494;-52
2022/09/13 07:54:14;;;;;;;42.50;18.90;;;;;;;;;;6290859;28;20036;-53
2022/09/13 07:57:15;;;;;;;38.08;18.65;;;;;;;;;;6290145;28;20047;-55
2022/09/13 08:00:15;;;;;;;39.08;18.17;;;;;;;;;;6289576;28;20463;-55
2022/09/13 08:03:16;;;;;;;38.83;17.27;;;;;;;;;;6290253;28;20498;-52
2022/09/13 08:06:17;;;;;;;37.83;18.10;;;;;;;;;;6290654;28;20093;-52
2022/09/13 08:09:18;;;;;;;34.78;17.23;;;;;;;;;;6288709;28;20032;-51
2022/09/13 08:12:18;;;;;;;38.55;18.20;;;;;;;;;;6290477;28;20044;-54
2022/09/13 08:15:19;;;;;;;32.25;16.95;;;;;;;;;;6290590;28;20124;-54
2022/09/13 08:18:19;;;;;;;40.65;17.52;;;;;;;;;;6287555;28;20074;-55
2022/09/13 08:21:21;;;;;;;32.67;14.70;;;;;;;;;;6285588;28;20053;-53
2022/09/13 08:24:22;;;;;;;31.80;14.87;;;;;;;;;;6284464;28;20102;-52
2022/09/13 08:27:22;;;;;;;29.40;15.15;;;;;;;;;;6283358;28;20044;-55
2022/09/13 08:30:23;;;;;;;27.75;13.85;;;;;;;;;;6282718;28;20036;-56
2022/09/13 08:33:24;;;;;;;25.33;11.93;;;;;;;;;;6281646;28;20040;-53
2022/09/13 08:36:26;;;;;;;23.42;11.70;;;;;;;;;;6284692;28;20049;-51
2022/09/13 08:39:26;;;;;;;21.55;11.05;;;;;;;;;;6280397;28;20139;-54
2022/09/13 08:42:45;;;;;;;18.67;9.35;;;;;;;;;;6284953;28;20097;-53
2022/09/13 08:46:05;;;;;;;18.35;9.95;;;;;;;;;;6287964;28;20040;-55
2022/09/13 08:49:10;;;;;;;25.80;11.27;;;;;;;;;;6285670;28;20073;-56
2022/09/13 08:52:18;;;;;;;22.27;10.32;;;;;;;;;;6286845;28;20072;-51
2022/09/13 08:55:26;;;;;;;19.50;10.27;;;;;;;;;;6285082;28;20090;-51
2022/09/13 08:59:05;;;;;;;17.98;9.60;;;;;;;;;;6287559;28;20132;-51
2022/09/13 09:02:40;;;;;;;18.40;9.18;;;;;;;;;;6284847;28;20152;-55
2022/09/13 09:05:48;;;;;;;21.73;9.38;;;;;;;;;;6285989;28;20460;-55
2022/09/13 09:08:55;;;;;;;24.38;9.60;;;;;;;;;;6286950;28;20157;-55
2022/09/13 09:12:05;;;;;;;17.88;9.00;;;;;;;;;;6287838;28;20099;-52
2022/09/13 09:15:16;;;;;;;15.75;7.97;;;;;;;;;;6284673;28;20560;-61
2022/09/13 09:18:31;;;;;;;14.55;8.35;;;;;;;;;;6285390;28;20048;-63
2022/09/13 09:21:32;;;;;;;13.98;8.80;;;;;;;;;;6286704;28;20095;-54
2022/09/13 09:24:36;;;;;;;19.92;9.30;;;;;;;;;;6286829;28;20159;-55
2022/09/13 09:27:36;;;;;;;16.98;8.85;;;;;;;;;;6284596;28;20051;-55
2022/09/13 09:30:48;;;;;;;14.60;8.35;;;;;;;;;;6289101;28;20812;-53
2022/09/13 09:33:58;;;;;;;16.60;8.30;;;;;;;;;;6287997;28;20131;-56
2022/09/13 09:37:10;;;;;;;14.93;7.45;;;;;;;;;;6288025;28;20494;-52
2022/09/13 09:40:12;;;;;;;17.73;8.07;;;;;;;;;;6285038;28;20044;-54
2022/09/13 09:43:20;;;;;;;15.82;7.35;;;;;;;;;;6286879;28;20131;-58
2022/09/13 09:46:26;;;;;;;15.02;8.13;;;;;;;;;;6286156;28;20395;-56
2022/09/13 09:53:32;;;;;;;14.98;7.60;;;;;;;;;;6290663;28;20491;-54
2022/09/13 09:56:35;;;;;;;18.38;7.95;;;;;;;;;;6292853;28;20044;-53
2022/09/13 09:59:35;;;;;;;;;;;;;;;;;;6293895;28;20561;-56
2022/09/13 10:02:42;;;;;;;14.35;7.25;;;;;;;;;;6292302;28;20014;-55
2022/09/13 10:05:44;;;;;;;15.85;8.45;;;;;;;;;;6292082;28;20047;-56
2022/09/13 10:08:55;;;;;;;;;;;;;;;;;;6293430;28;20135;-54
2022/09/13 10:11:58;;;;;;;19.17;8.10;;;;;;;;;;6293347;28;19924;-53
2022/09/13 10:15:06;;;;;;;16.60;7.88;;;;;;;;;;6286352;28;20559;-52
2022/09/13 10:18:16;;;;;;;13.93;8.13;;;;;;;;;;6286703;28;20549;-58
2022/09/13 10:21:16;;;;;;;14.48;7.97;;;;;;;;;;6286300;28;20171;-57
2022/09/13 10:24:20;;;;;;;17.60;8.32;;;;;;;;;;6284293;28;20040;-57
2022/09/13 10:27:44;;;;;;;17.75;8.10;;;;;;;;;;6285563;28;20128;-55
2022/09/13 10:30:53;;;;;;;15.20;8.20;;;;;;;;;;6290606;28;20046;-57
2022/09/13 10:34:01;;;;;;;17.58;7.75;;;;;;;;;;6292258;28;20044;-54
2022/09/13 10:37:10;;;;;;;12.88;7.53;;;;;;;;;;6291403;28;20423;-54
2022/09/13 10:40:25;;;;;;;15.80;7.88;;;;;;;;;;6291563;28;20086;-58
2022/09/13 10:43:28;;;;;;;14.73;7.65;;;;;;;;;;6292244;28;20047;-54
2022/09/13 10:46:35;;;;;;;16.02;9.15;;;;;;;;;;6292247;28;20139;-53
2022/09/13 10:49:53;;;;;;;17.88;8.55;;;;;;;;;;6288253;28;20415;-54
2022/09/13 10:52:56;;;;;;;15.93;7.95;;;;;;;;;;6288202;28;20387;-55
2022/09/13 10:55:57;;;;;;;16.27;8.48;;;;;;;;;;6292817;28;20198;-57
2022/09/13 10:59:21;;;;;;;13.38;7.78;;;;;;;;;;6291754;28;20533;-57
2022/09/13 11:02:31;;;;;;;13.50;7.93;;;;;;;;;;6288004;28;20131;-59
2022/09/13 11:06:01;;;;;;;15.03;8.87;;;;;;;;;;6285015;28;21478;-56
2022/09/13 11:09:11;;;;;;;17.65;8.88;;;;;;;;;;6284611;28;20121;-53
2022/09/13 11:12:36;;;;;;;18.95;8.88;;;;;;;;;;6285225;28;20099;-54
2022/09/13 11:16:04;;;;;;;15.88;8.88;;;;;;;;;;6282140;28;20049;-56
2022/09/13 11:19:35;;;;;;;19.92;11.20;;;;;;;;;;6286087;28;20064;-53
2022/09/13 11:23:01;;;;;;;155.27;99.03;;;;;;;;;;6282712;28;20072;-56
2022/09/13 11:26:29;;;;;;;196.25;106.35;;;;;;;;;;6267452;28;20083;-57
2022/09/13 11:29:51;;;;;;;24.25;12.82;;;;;;;;;;6269296;28;20067;-54
2022/09/13 11:33:28;;;;;;;15.40;7.88;;;;;;;;;;6264056;28;20090;-54
2022/09/13 11:37:07;;;;;;;22.30;13.23;;;;;;;;;;6265196;28;20052;-59
2022/09/13 11:40:45;;;;;;;39.95;27.33;;;;;;;;;;6260625;28;20479;-54
2022/09/13 11:44:10;;;;;;;17.23;7.93;;;;;;;;;;6262384;28;20705;-54
2022/09/13 11:47:26;;;;;;;13.65;8.18;;;;;;;;;;6266767;28;20461;-54
2022/09/13 11:50:38;;;;;;;32.63;21.65;;;;;;;;;;6266090;28;20959;-59
2022/09/13 11:54:01;;;;;;;26.20;16.05;;;;;;;;;;6262925;28;20119;-59
2022/09/13 11:57:17;;;;;;;17.08;10.60;;;;;;;;;;6266983;28;20531;-58
2022/09/13 12:00:20;;;;;;;13.98;8.07;;;;;;;;;;6268747;28;20715;-58
2022/09/13 12:03:26;;;;;;;17.23;7.97;;;;;;;;;;6263618;28;20061;-53
2022/09/13 12:06:32;;;;;;;16.17;8.55;;;;;;;;;;6268336;28;20041;-54
2022/09/13 12:09:50;;;;;;;17.48;8.20;;;;;;;;;;6269744;28;20136;-54
2022/09/13 12:12:52;;;;;;;22.35;11.07;;;;;;;;;;6265067;28;20055;-58
2022/09/13 12:16:00;;;;;;;21.38;10.07;;;;;;;;;;6263118;28;20505;-51
2022/09/13 12:19:07;;;;;;;15.38;8.07;;;;;;;;;;6265337;28;20147;-53
2022/09/13 12:22:09;;;;;;;19.38;8.75;;;;;;;;;;6267554;28;20032;-51
2022/09/13 12:25:23;;;;;;;16.40;9.20;;;;;;;;;;6262595;28;20040;-50
2022/09/13 12:28:28;;;;;;;13.43;7.95;;;;;;;;;;6266484;28;20131;-51
2022/09/13 12:31:30;;;;;;;23.42;13.80;;;;;;;;;;6269152;28;20059;-52
2022/09/13 12:34:48;;;;;;;19.92;10.05;;;;;;;;;;6270757;28;20205;-53
2022/09/13 12:38:24;;;;;;;35.97;16.88;;;;;;;;;;6268600;28;20040;-54
2022/09/13 12:41:40;;;;;;;111.57;59.13;;;;;;;;;;6247995;28;20040;-57
2022/09/13 12:45:12;;;;;;;21.80;10.40;;;;;;;;;;6267590;28;20063;-55
2022/09/13 12:48:46;;;;;;;32.28;15.00;;;;;;;;;;6269576;28;21501;-57
2022/09/13 12:51:56;;;;;;;24.77;14.95;;;;;;;;;;6271798;28;20064;-54
2022/09/13 12:55:39;;;;;;;14.05;8.07;;;;;;;;;;6262179;28;20048;-54
2022/09/13 12:59:14;;;;;;;39.10;15.77;;;;;;;;;;6272967;28;20049;-55
2022/09/13 13:02:37;;;;;;;21.00;9.90;;;;;;;;;;6265763;28;20127;-53
2022/09/13 13:05:42;;;;;;;37.20;22.27;;;;;;;;;;6268443;28;20049;-54
2022/09/13 13:08:50;;;;;;;17.38;8.32;;;;;;;;;;6272980;28;20067;-55
2022/09/13 13:11:52;;;;;;;19.75;9.13;;;;;;;;;;6273057;28;20045;-55
2022/09/13 13:14:53;;;;;;;14.75;7.78;;;;;;;;;;6265886;28;20566;-57
2022/09/13 13:17:54;;;;;;;21.73;13.65;;;;;;;;;;6273384;28;20143;-51
2022/09/13 13:20:55;;;;;;;16.67;9.63;;;;;;;;;;6273021;28;20085;-51
2022/09/13 13:24:14;;;;;;;14.70;8.83;;;;;;;;;;6270656;28;20711;-54
2022/09/13 13:27:36;;;;;;;16.88;8.77;;;;;;;;;;6269237;28;20033;-51
2022/09/13 13:30:50;;;;;;;17.75;10.05;;;;;;;;;;6273905;28;20048;-55
2022/09/13 13:33:57;;;;;;;18.63;11.23;;;;;;;;;;6270675;28;21041;-57
2022/09/13 13:37:25;;;;;;;17.73;8.40;;;;;;;;;;6274343;28;20044;-54
2022/09/13 13:40:27;;;;;;;30.70;14.77;;;;;;;;;;6274119;28;20092;-51
2022/09/13 13:43:31;;;;;;;21.10;11.02;;;;;;;;;;6271160;28;20048;-51
2022/09/13 13:46:32;;;;;;;18.08;8.68;;;;;;;;;;6272807;28;20636;-51
2022/09/13 13:49:34;;;;;;;14.32;8.18;;;;;;;;;;6273676;28;20105;-51
2022/09/13 13:52:36;;;;;;;15.13;8.03;;;;;;;;;;6272440;28;20041;-52
2022/09/13 13:55:47;;;;;;;18.40;8.80;;;;;;;;;;6270206;28;20530;-58
2022/09/13 13:58:53;;;;;;;20.27;12.25;;;;;;;;;;6273396;28;20582;-57
2022/09/13 14:01:58;;;;;;;21.33;10.65;;;;;;;;;;6273538;28;20152;-55
2022/09/13 14:05:13;;;;;;;18.13;10.00;;;;;;;;;;6269254;28;20060;-52
2022/09/13 14:08:30;;;;;;;16.40;9.38;;;;;;;;;;6284850;28;20132;-49
2022/09/13 14:11:56;;;;;;;16.52;9.48;;;;;;;;;;6273500;28;20060;-54
2022/09/13 14:15:05;;;;;;;18.80;9.05;;;;;;;;;;6266707;28;20136;-55
2022/09/13 14:18:33;;;;;;;15.45;8.73;;;;;;;;;;6268808;28;20045;-56
2022/09/13 14:21:34;;;;;;;14.73;8.60;;;;;;;;;;6266940;28;20044;-54
2022/09/13 14:24:37;;;;;;;19.07;8.90;;;;;;;;;;6265264;28;20492;-55
2022/09/13 14:27:40;;;;;;;28.98;16.45;;;;;;;;;;6271632;28;20164;-57
2022/09/13 14:30:44;;;;;;;14.65;9.35;;;;;;;;;;6270521;28;20427;-56
2022/09/13 14:33:44;;;;;;;13.25;7.40;;;;;;;;;;6268238;28;20068;-53
2022/09/13 14:36:57;;;;;;;17.07;7.90;;;;;;;;;;6273845;28;20045;-50
2022/09/13 14:40:06;;;;;;;19.30;10.80;;;;;;;;;;6273878;28;20061;-60
2022/09/13 14:43:19;;;;;;;15.63;8.55;;;;;;;;;;6269043;28;20403;-59
2022/09/13 14:46:31;;;;;;;15.75;8.20;;;;;;;;;;6274965;28;20052;-58
2022/09/13 14:49:37;;;;;;;16.45;8.18;;;;;;;;;;6272065;28;20052;-56
2022/09/13 14:52:49;;;;;;;13.95;8.20;;;;;;;;;;6275449;28;20170;-53
2022/09/13 14:55:56;;;;;;;16.60;8.50;;;;;;;;;;6275704;28;20519;-52
2022/09/13 14:58:59;;;;;;;13.05;7.75;;;;;;;;;;6270835;28;20144;-55
2022/09/13 15:02:24;;;;;;;14.70;8.13;;;;;;;;;;6270349;28;20084;-50
2022/09/13 15:05:30;;;;;;;18.27;9.55;;;;;;;;;;6265856;28;20642;-54
2022/09/13 15:08:33;;;;;;;15.95;8.82;;;;;;;;;;6268808;28;20139;-53
2022/09/13 15:11:36;;;;;;;13.63;7.65;;;;;;;;;;6269156;28;20044;-56
2022/09/13 15:14:37;;;;;;;17.80;9.55;;;;;;;;;;6270336;28;20174;-52
2022/09/13 15:18:12;;;;;;;35.45;20.02;;;;;;;;;;6269492;28;20129;-56
2022/09/13 15:21:17;;;;;;;25.02;14.75;;;;;;;;;;6271598;28;20722;-58
2022/09/13 15:24:23;;;;;;;18.90;11.13;;;;;;;;;;6270999;28;20186;-58
2022/09/13 15:27:49;;;;;;;19.25;8.57;;;;;;;;;;6274238;28;20048;-61
2022/09/13 15:30:51;;;;;;;20.02;9.80;;;;;;;;;;6273793;28;20107;-58
2022/09/13 15:34:13;;;;;;;14.57;7.50;;;;;;;;;;6272563;28;20079;-54
2022/09/13 15:37:14;;;;;;;17.98;8.70;;;;;;;;;;6273811;28;20388;-50
2022/09/13 15:43:30;;;;;;;16.35;7.10;;;;;;;;;;6405990;23;20062;-60
2022/09/13 15:46:31;;;;;;;14.65;7.10;;;;;;;;;;6196433;28;20567;-59
2022/09/13 15:49:32;;;;;;;14.50;7.93;;;;;;;;;;6199668;28;20061;-49
2022/09/13 15:52:33;;;;;;;14.02;6.93;;;;;;;;;;6199855;28;20149;-56
2022/09/13 15:55:33;;;;;;;14.67;7.00;;;;;;;;;;6198106;28;20061;-56
2022/09/13 15:58:35;;;;;;;19.90;7.90;;;;;;;;;;6193077;28;20137;-53
2022/09/13 16:01:35;;;;;;;16.50;7.45;;;;;;;;;;6199275;28;20042;-55
2022/09/13 16:04:36;;;;;;;11.73;6.77;;;;;;;;;;6192957;28;20072;-52
2022/09/13 16:07:37;;;;;;;13.50;6.83;;;;;;;;;;6196679;28;20416;-54
2022/09/13 16:10:38;;;;;;;13.80;7.30;;;;;;;;;;6197089;28;20573;-52
2022/09/13 16:13:38;;;;;;;13.87;7.23;;;;;;;;;;6198023;28;20053;-54
2022/09/13 16:16:39;;;;;;;15.17;7.20;;;;;;;;;;6198894;28;20084;-55
2022/09/13 16:19:40;;;;;;;14.03;7.07;;;;;;;;;;6195256;28;20526;-57
2022/09/13 16:22:42;;;;;;;;;;;;;;;;;;6194962;28;20584;-54
2022/09/13 16:25:43;;;;;;;14.98;7.10;;;;;;;;;;6199147;28;20335;-57
2022/09/13 16:28:43;;;;;;;15.03;7.47;;;;;;;;;;6196696;28;20052;-51
2022/09/13 16:31:44;;;;;;;15.45;7.38;;;;;;;;;;6198960;28;20295;-53
2022/09/13 16:34:44;;;;;;;14.20;7.43;;;;;;;;;;6185103;28;20078;-51
2022/09/13 16:37:50;;;;;;;15.07;8.00;;;;;;;;;;6199636;28;20045;-55
2022/09/13 16:40:51;;;;;;;12.48;6.85;;;;;;;;;;6200132;28;20050;-61
2022/09/13 16:43:53;;;;;;;17.10;7.90;;;;;;;;;;6199570;28;20108;-57
2022/09/13 16:46:54;;;;;;;17.20;7.18;;;;;;;;;;6199588;28;20148;-59
2022/09/13 16:49:55;;;;;;;12.93;7.30;;;;;;;;;;6198911;28;20046;-51
2022/09/13 16:52:55;;;;;;;15.40;8.00;;;;;;;;;;6196849;28;20080;-53
2022/09/13 16:56:14;;;;;;;14.30;7.53;;;;;;;;;;6198836;28;20054;-54
2022/09/13 16:59:14;;;;;;;17.80;7.63;;;;;;;;;;6198298;28;20170;-49
2022/09/13 17:02:15;;;;;;;18.63;7.72;;;;;;;;;;6201186;28;20812;-58
2022/09/13 17:05:16;;;;;;;16.10;7.22;;;;;;;;;;6200634;28;20091;-52
2022/09/13 17:08:16;;;;;;;17.70;8.40;;;;;;;;;;6191558;28;20160;-53
2022/09/13 17:11:19;;;;;;;19.95;8.25;;;;;;;;;;6201975;28;20085;-57
2022/09/13 17:14:20;;;;;;;13.70;7.70;;;;;;;;;;6201771;28;20133;-53
2022/09/13 17:17:21;;;;;;;14.18;7.97;;;;;;;;;;6195437;28;20062;-56
2022/09/13 17:20:21;;;;;;;16.40;8.67;;;;;;;;;;6200098;28;20057;-56
2022/09/13 17:23:22;;;;;;;18.65;8.43;;;;;;;;;;6195334;28;21521;-51
2022/09/13 17:26:22;;;;;;;17.90;8.77;;;;;;;;;;6199948;28;20109;-53
2022/09/13 17:29:24;;;;;;;17.77;9.80;;;;;;;;;;6200119;28;20706;-50
2022/09/13 17:32:25;;;;;;;21.73;8.95;;;;;;;;;;6203090;28;20041;-50
2022/09/13 17:35:27;;;;;;;16.67;8.40;;;;;;;;;;6200207;28;20139;-57
2022/09/13 17:38:27;;;;;;;17.70;9.63;;;;;;;;;;6198356;28;20073;-60
2022/09/13 17:41:29;;;;;;;16.45;8.00;;;;;;;;;;6195544;28;20050;-55
2022/09/13 17:44:29;;;;;;;19.38;7.55;;;;;;;;;;6197381;28;20057;-54
2022/09/13 17:47:30;;;;;;;21.23;8.10;;;;;;;;;;6194212;28;20046;-51
2022/09/13 17:50:30;;;;;;;17.98;8.27;;;;;;;;;;6196476;28;20050;-54
2022/09/13 17:53:37;;;;;;;17.20;8.02;;;;;;;;;;6195529;28;20082;-58
2022/09/13 17:56:41;;;;;;;16.80;8.82;;;;;;;;;;6199529;28;20049;-54
2022/09/13 17:59:41;;;;;;;17.70;9.43;;;;;;;;;;6200016;28;20053;-51
2022/09/13 18:02:45;;;;;;;15.02;7.72;;;;;;;;;;6193817;28;20566;-51
2022/09/13 18:05:46;;;;;;;18.20;8.38;;;;;;;;;;6196503;28;20596;-55
2022/09/13 18:08:46;;;;;;;21.25;8.88;;;;;;;;;;6199268;28;20517;-50
2022/09/13 18:11:47;;;;;;;16.40;8.18;;;;;;;;;;6200227;28;20052;-58
2022/09/13 18:14:48;;;;;;;15.88;8.25;;;;;;;;;;6197223;28;20058;-51
2022/09/13 18:17:48;;;;;;;15.65;7.97;;;;;;;;;;6196651;28;20054;-50
2022/09/13 18:20:49;;;;;;;17.13;7.78;;;;;;;;;;6198656;28;20077;-51
2022/09/13 18:23:52;;;;;;;18.30;9.07;;;;;;;;;;6196259;28;20042;-60